sensor_id;sensor_type;location;lat;lon;timestamp;P1;durP1;ratioP1;P2;durP2;ratioP2
31526;SDS011;18136;42.236;-73.040;2023-04-29T00:00:02;2.33;;;1.40;;
31526;SDS011;18136;42.236;-73.040;2023-04-29T00:02:31;2.88;;;1.52;;
31526;SDS011;18136;42.236;-73.040;2023-04-29T00:04:57;2.97;;;1.77;;
31526;SDS011;18136;42.236;-73.040;2023-04-29T00:07:23;2.03;;;1.30;;
31526;SDS011;18136;42.236;-73.040;2023-04-29T00:09:49;1.88;;;1.38;;
31526;SDS011;18136;42.236;-73.040;2023-04-29T00:12:15;3.05;;;1.70;;
31526;SDS011;18136;42.236;-73.040;2023-04-29T00:14:42;3.28;;;1.60;;
31526;SDS011;18136;42.236;-73.040;2023-04-29T00:17:08;1.67;;;1.33;;
31526;SDS011;18136;42.236;-73.040;2023-04-29T00:19:37;3.78;;;1.70;;
31526;SDS011;18136;42.236;-73.040;2023-04-29T00:22:03;2.72;;;1.65;;
31526;SDS011;18136;42.236;-73.040;2023-04-29T00:24:29;2.92;;;1.70;;
31526;SDS011;18136;42.236;-73.040;2023-04-29T00:26:55;3.10;;;1.58;;
31526;SDS011;18136;42.236;-73.040;2023-04-29T00:29:21;2.05;;;1.55;;
31526;SDS011;18136;42.236;-73.040;2023-04-29T00:31:47;3.78;;;1.65;;
31526;SDS011;18136;42.236;-73.040;2023-04-29T00:34:14;2.95;;;1.50;;
31526;SDS011;18136;42.236;-73.040;2023-04-29T00:36:40;4.22;;;1.38;;
31526;SDS011;18136;42.236;-73.040;2023-04-29T00:39:06;5.68;;;1.70;;
31526;SDS011;18136;42.236;-73.040;2023-04-29T00:41:32;5.78;;;1.88;;
31526;SDS011;18136;42.236;-73.040;2023-04-29T00:43:59;2.83;;;1.60;;
31526;SDS011;18136;42.236;-73.040;2023-04-29T00:46:26;2.17;;;1.73;;
31526;SDS011;18136;42.236;-73.040;2023-04-29T00:48:52;5.18;;;1.85;;
31526;SDS011;18136;42.236;-73.040;2023-04-29T00:51:18;4.30;;;2.10;;
31526;SDS011;18136;42.236;-73.040;2023-04-29T00:53:44;1.85;;;1.52;;
31526;SDS011;18136;42.236;-73.040;2023-04-29T00:56:10;1.90;;;1.40;;
31526;SDS011;18136;42.236;-73.040;2023-04-29T00:58:39;3.17;;;1.52;;
31526;SDS011;18136;42.236;-73.040;2023-04-29T01:01:09;2.28;;;1.50;;
31526;SDS011;18136;42.236;-73.040;2023-04-29T01:03:36;3.30;;;1.67;;
31526;SDS011;18136;42.236;-73.040;2023-04-29T01:14:38;4.13;;;1.58;;
31526;SDS011;18136;42.236;-73.040;2023-04-29T01:17:14;1.88;;;1.70;;
31526;SDS011;18136;42.236;-73.040;2023-04-29T01:19:46;4.25;;;1.90;;
31526;SDS011;18136;42.236;-73.040;2023-04-29T01:22:14;2.95;;;1.30;;
31526;SDS011;18136;42.236;-73.040;2023-04-29T01:24:45;6.05;;;1.65;;
31526;SDS011;18136;42.236;-73.040;2023-04-29T01:30:06;2.70;;;1.88;;
31526;SDS011;18136;42.236;-73.040;2023-04-29T01:35:51;3.55;;;1.80;;
31526;SDS011;18136;42.236;-73.040;2023-04-29T01:39:31;1.45;;;1.35;;
31526;SDS011;18136;42.236;-73.040;2023-04-29T01:41:43;2.08;;;1.60;;
31526;SDS011;18136;42.236;-73.040;2023-04-29T01:44:17;2.33;;;1.58;;
31526;SDS011;18136;42.236;-73.040;2023-04-29T01:46:49;2.60;;;1.60;;
31526;SDS011;18136;42.236;-73.040;2023-04-29T01:49:24;2.58;;;1.75;;
31526;SDS011;18136;42.236;-73.040;2023-04-29T01:51:51;1.60;;;1.40;;
31526;SDS011;18136;42.236;-73.040;2023-04-29T01:54:17;2.30;;;1.60;;
31526;SDS011;18136;42.236;-73.040;2023-04-29T01:56:44;2.40;;;1.55;;
31526;SDS011;18136;42.236;-73.040;2023-04-29T01:59:11;1.92;;;1.58;;
31526;SDS011;18136;42.236;-73.040;2023-04-29T02:01:37;2.45;;;1.65;;
31526;SDS011;18136;42.236;-73.040;2023-04-29T02:04:03;2.67;;;1.92;;
31526;SDS011;18136;42.236;-73.040;2023-04-29T02:06:29;2.40;;;1.25;;
31526;SDS011;18136;42.236;-73.040;2023-04-29T02:08:58;2.53;;;1.60;;
31526;SDS011;18136;42.236;-73.040;2023-04-29T02:11:24;2.28;;;1.23;;
31526;SDS011;18136;42.236;-73.040;2023-04-29T02:13:50;2.85;;;1.50;;
31526;SDS011;18136;42.236;-73.040;2023-04-29T02:16:16;4.50;;;1.70;;
31526;SDS011;18136;42.236;-73.040;2023-04-29T02:18:43;1.92;;;1.50;;
31526;SDS011;18136;42.236;-73.040;2023-04-29T02:21:09;2.95;;;1.63;;
31526;SDS011;18136;42.236;-73.040;2023-04-29T02:23:36;2.58;;;1.90;;
31526;SDS011;18136;42.236;-73.040;2023-04-29T02:26:04;1.90;;;1.50;;
31526;SDS011;18136;42.236;-73.040;2023-04-29T02:28:31;1.98;;;1.58;;
31526;SDS011;18136;42.236;-73.040;2023-04-29T02:30:58;3.30;;;1.70;;
31526;SDS011;18136;42.236;-73.040;2023-04-29T02:33:25;2.15;;;1.92;;
31526;SDS011;18136;42.236;-73.040;2023-04-29T02:35:51;2.90;;;1.90;;
31526;SDS011;18136;42.236;-73.040;2023-04-29T02:38:17;2.55;;;1.58;;
31526;SDS011;18136;42.236;-73.040;2023-04-29T02:40:44;2.17;;;1.30;;
31526;SDS011;18136;42.236;-73.040;2023-04-29T02:43:15;3.63;;;1.80;;
31526;SDS011;18136;42.236;-73.040;2023-04-29T02:45:41;2.85;;;1.67;;
31526;SDS011;18136;42.236;-73.040;2023-04-29T02:48:09;3.28;;;1.83;;
31526;SDS011;18136;42.236;-73.040;2023-04-29T02:50:36;3.88;;;1.58;;
31526;SDS011;18136;42.236;-73.040;2023-04-29T02:53:02;2.17;;;1.50;;
31526;SDS011;18136;42.236;-73.040;2023-04-29T02:55:31;5.57;;;2.10;;
31526;SDS011;18136;42.236;-73.040;2023-04-29T02:57:58;4.10;;;1.83;;
31526;SDS011;18136;42.236;-73.040;2023-04-29T03:00:25;3.92;;;1.95;;
31526;SDS011;18136;42.236;-73.040;2023-04-29T03:02:52;3.20;;;1.80;;
31526;SDS011;18136;42.236;-73.040;2023-04-29T03:05:18;2.15;;;1.95;;
31526;SDS011;18136;42.236;-73.040;2023-04-29T03:07:45;5.70;;;1.77;;
31526;SDS011;18136;42.236;-73.040;2023-04-29T03:10:11;2.85;;;2.10;;
31526;SDS011;18136;42.236;-73.040;2023-04-29T03:12:37;2.60;;;2.00;;
31526;SDS011;18136;42.236;-73.040;2023-04-29T03:15:04;2.80;;;2.17;;
31526;SDS011;18136;42.236;-73.040;2023-04-29T03:17:34;5.15;;;1.80;;
31526;SDS011;18136;42.236;-73.040;2023-04-29T03:20:03;5.53;;;2.15;;
31526;SDS011;18136;42.236;-73.040;2023-04-29T03:22:30;3.53;;;1.67;;
31526;SDS011;18136;42.236;-73.040;2023-04-29T03:24:56;3.40;;;1.88;;
31526;SDS011;18136;42.236;-73.040;2023-04-29T03:27:22;2.65;;;2.00;;
31526;SDS011;18136;42.236;-73.040;2023-04-29T03:29:48;4.65;;;1.95;;
31526;SDS011;18136;42.236;-73.040;2023-04-29T03:32:15;2.45;;;1.90;;
31526;SDS011;18136;42.236;-73.040;2023-04-29T03:34:41;4.80;;;2.33;;
31526;SDS011;18136;42.236;-73.040;2023-04-29T03:37:07;3.33;;;1.90;;
31526;SDS011;18136;42.236;-73.040;2023-04-29T03:39:33;3.47;;;2.05;;
31526;SDS011;18136;42.236;-73.040;2023-04-29T03:41:59;2.92;;;2.13;;
31526;SDS011;18136;42.236;-73.040;2023-04-29T03:44:26;3.90;;;2.05;;
31526;SDS011;18136;42.236;-73.040;2023-04-29T03:46:53;3.25;;;2.38;;
31526;SDS011;18136;42.236;-73.040;2023-04-29T03:49:19;2.95;;;1.70;;
31526;SDS011;18136;42.236;-73.040;2023-04-29T03:51:45;2.28;;;1.95;;
31526;SDS011;18136;42.236;-73.040;2023-04-29T03:54:11;2.90;;;2.13;;
31526;SDS011;18136;42.236;-73.040;2023-04-29T03:56:39;2.20;;;2.00;;
31526;SDS011;18136;42.236;-73.040;2023-04-29T03:59:05;2.55;;;2.15;;
31526;SDS011;18136;42.236;-73.040;2023-04-29T04:01:31;4.18;;;1.88;;
31526;SDS011;18136;42.236;-73.040;2023-04-29T04:03:59;3.92;;;2.38;;
31526;SDS011;18136;42.236;-73.040;2023-04-29T04:06:25;2.40;;;2.20;;
31526;SDS011;18136;42.236;-73.040;2023-04-29T04:08:51;3.08;;;2.10;;
31526;SDS011;18136;42.236;-73.040;2023-04-29T04:11:17;3.15;;;2.10;;
31526;SDS011;18136;42.236;-73.040;2023-04-29T04:13:43;5.63;;;2.88;;
31526;SDS011;18136;42.236;-73.040;2023-04-29T04:16:10;3.65;;;2.10;;
31526;SDS011;18136;42.236;-73.040;2023-04-29T04:18:37;3.10;;;2.15;;
31526;SDS011;18136;42.236;-73.040;2023-04-29T04:21:04;2.42;;;1.90;;
31526;SDS011;18136;42.236;-73.040;2023-04-29T04:23:33;3.70;;;2.10;;
31526;SDS011;18136;42.236;-73.040;2023-04-29T04:25:59;3.42;;;1.60;;
31526;SDS011;18136;42.236;-73.040;2023-04-29T04:28:27;2.90;;;1.77;;
31526;SDS011;18136;42.236;-73.040;2023-04-29T04:30:53;2.63;;;2.03;;
31526;SDS011;18136;42.236;-73.040;2023-04-29T04:33:19;4.20;;;2.30;;
31526;SDS011;18136;42.236;-73.040;2023-04-29T04:35:45;1.70;;;1.60;;
31526;SDS011;18136;42.236;-73.040;2023-04-29T04:38:11;2.28;;;1.85;;
31526;SDS011;18136;42.236;-73.040;2023-04-29T04:40:40;1.85;;;1.50;;
31526;SDS011;18136;42.236;-73.040;2023-04-29T04:43:09;2.42;;;1.80;;
31526;SDS011;18136;42.236;-73.040;2023-04-29T04:45:35;2.80;;;1.75;;
31526;SDS011;18136;42.236;-73.040;2023-04-29T04:48:01;2.42;;;1.73;;
31526;SDS011;18136;42.236;-73.040;2023-04-29T04:50:28;2.53;;;1.60;;
31526;SDS011;18136;42.236;-73.040;2023-04-29T04:52:55;2.60;;;1.70;;
31526;SDS011;18136;42.236;-73.040;2023-04-29T04:55:21;4.38;;;1.67;;
31526;SDS011;18136;42.236;-73.040;2023-04-29T04:57:48;2.35;;;1.80;;
31526;SDS011;18136;42.236;-73.040;2023-04-29T05:00:14;3.03;;;2.00;;
31526;SDS011;18136;42.236;-73.040;2023-04-29T05:02:40;2.70;;;1.67;;
31526;SDS011;18136;42.236;-73.040;2023-04-29T05:05:07;2.38;;;1.85;;
31526;SDS011;18136;42.236;-73.040;2023-04-29T05:10:34;2.17;;;1.63;;
31526;SDS011;18136;42.236;-73.040;2023-04-29T05:13:01;2.13;;;1.73;;
31526;SDS011;18136;42.236;-73.040;2023-04-29T05:15:27;3.28;;;1.77;;
31526;SDS011;18136;42.236;-73.040;2023-04-29T05:17:53;2.13;;;1.67;;
31526;SDS011;18136;42.236;-73.040;2023-04-29T05:20:20;2.47;;;1.60;;
31526;SDS011;18136;42.236;-73.040;2023-04-29T05:22:46;1.60;;;1.40;;
31526;SDS011;18136;42.236;-73.040;2023-04-29T05:25:12;2.03;;;1.60;;
31526;SDS011;18136;42.236;-73.040;2023-04-29T05:27:38;2.10;;;1.60;;
31526;SDS011;18136;42.236;-73.040;2023-04-29T05:30:04;2.25;;;1.50;;
31526;SDS011;18136;42.236;-73.040;2023-04-29T05:32:31;4.43;;;1.63;;
31526;SDS011;18136;42.236;-73.040;2023-04-29T05:34:57;2.00;;;1.35;;
31526;SDS011;18136;42.236;-73.040;2023-04-29T05:37:23;2.28;;;1.58;;
31526;SDS011;18136;42.236;-73.040;2023-04-29T05:39:55;3.10;;;1.38;;
31526;SDS011;18136;42.236;-73.040;2023-04-29T05:42:21;3.10;;;1.70;;
31526;SDS011;18136;42.236;-73.040;2023-04-29T05:44:48;2.42;;;1.58;;
31526;SDS011;18136;42.236;-73.040;2023-04-29T05:47:15;2.42;;;1.42;;
31526;SDS011;18136;42.236;-73.040;2023-04-29T05:49:41;1.50;;;1.40;;
31526;SDS011;18136;42.236;-73.040;2023-04-29T05:52:07;1.60;;;1.50;;
31526;SDS011;18136;42.236;-73.040;2023-04-29T05:54:33;2.80;;;1.40;;
31526;SDS011;18136;42.236;-73.040;2023-04-29T05:56:59;3.33;;;1.58;;
31526;SDS011;18136;42.236;-73.040;2023-04-29T05:59:28;1.52;;;1.40;;
31526;SDS011;18136;42.236;-73.040;2023-04-29T06:01:57;1.77;;;1.52;;
31526;SDS011;18136;42.236;-73.040;2023-04-29T06:04:24;1.70;;;1.40;;
31526;SDS011;18136;42.236;-73.040;2023-04-29T06:06:51;3.13;;;1.80;;
31526;SDS011;18136;42.236;-73.040;2023-04-29T06:09:18;2.55;;;1.73;;
31526;SDS011;18136;42.236;-73.040;2023-04-29T06:11:45;2.15;;;1.45;;
31526;SDS011;18136;42.236;-73.040;2023-04-29T06:14:11;3.28;;;1.75;;
31526;SDS011;18136;42.236;-73.040;2023-04-29T06:16:38;3.67;;;1.65;;
31526;SDS011;18136;42.236;-73.040;2023-04-29T06:19:04;1.70;;;1.58;;
31526;SDS011;18136;42.236;-73.040;2023-04-29T06:21:30;3.58;;;1.38;;
31526;SDS011;18136;42.236;-73.040;2023-04-29T06:23:57;2.22;;;1.48;;
31526;SDS011;18136;42.236;-73.040;2023-04-29T06:26:23;3.38;;;1.83;;
31526;SDS011;18136;42.236;-73.040;2023-04-29T06:28:49;3.20;;;1.50;;
31526;SDS011;18136;42.236;-73.040;2023-04-29T06:31:15;2.45;;;1.85;;
31526;SDS011;18136;42.236;-73.040;2023-04-29T06:33:41;1.73;;;1.38;;
31526;SDS011;18136;42.236;-73.040;2023-04-29T06:36:11;3.50;;;2.10;;
31526;SDS011;18136;42.236;-73.040;2023-04-29T06:38:37;2.28;;;1.90;;
31526;SDS011;18136;42.236;-73.040;2023-04-29T06:41:03;1.73;;;1.63;;
31526;SDS011;18136;42.236;-73.040;2023-04-29T06:43:29;3.08;;;1.52;;
31526;SDS011;18136;42.236;-73.040;2023-04-29T06:45:55;2.17;;;1.60;;
31526;SDS011;18136;42.236;-73.040;2023-04-29T06:48:21;3.60;;;2.10;;
31526;SDS011;18136;42.236;-73.040;2023-04-29T06:50:51;3.40;;;1.60;;
31526;SDS011;18136;42.236;-73.040;2023-04-29T06:53:18;3.55;;;2.03;;
31526;SDS011;18136;42.236;-73.040;2023-04-29T06:55:45;3.10;;;1.88;;
31526;SDS011;18136;42.236;-73.040;2023-04-29T06:58:12;2.70;;;1.92;;
31526;SDS011;18136;42.236;-73.040;2023-04-29T07:00:39;2.17;;;1.40;;
31526;SDS011;18136;42.236;-73.040;2023-04-29T07:03:05;5.13;;;1.98;;
31526;SDS011;18136;42.236;-73.040;2023-04-29T07:05:31;2.33;;;1.95;;
31526;SDS011;18136;42.236;-73.040;2023-04-29T07:07:57;5.38;;;2.17;;
31526;SDS011;18136;42.236;-73.040;2023-04-29T07:10:23;3.00;;;1.77;;
31526;SDS011;18136;42.236;-73.040;2023-04-29T07:12:50;3.88;;;1.63;;
31526;SDS011;18136;42.236;-73.040;2023-04-29T07:15:16;3.45;;;1.98;;
31526;SDS011;18136;42.236;-73.040;2023-04-29T07:17:43;3.28;;;2.53;;
31526;SDS011;18136;42.236;-73.040;2023-04-29T07:20:09;3.60;;;1.98;;
31526;SDS011;18136;42.236;-73.040;2023-04-29T07:22:35;4.03;;;2.08;;
31526;SDS011;18136;42.236;-73.040;2023-04-29T07:25:01;2.10;;;1.85;;
31526;SDS011;18136;42.236;-73.040;2023-04-29T07:27:28;2.72;;;1.80;;
31526;SDS011;18136;42.236;-73.040;2023-04-29T07:29:54;2.75;;;1.90;;
31526;SDS011;18136;42.236;-73.040;2023-04-29T07:32:21;5.53;;;2.58;;
31526;SDS011;18136;42.236;-73.040;2023-04-29T07:34:48;2.10;;;1.90;;
31526;SDS011;18136;42.236;-73.040;2023-04-29T07:37:14;3.53;;;2.15;;
31526;SDS011;18136;42.236;-73.040;2023-04-29T07:39:40;2.88;;;2.38;;
31526;SDS011;18136;42.236;-73.040;2023-04-29T07:42:06;3.80;;;2.13;;
31526;SDS011;18136;42.236;-73.040;2023-04-29T07:44:32;2.95;;;2.30;;
31526;SDS011;18136;42.236;-73.040;2023-04-29T07:46:58;6.57;;;2.60;;
31526;SDS011;18136;42.236;-73.040;2023-04-29T07:49:24;5.25;;;2.38;;
31526;SDS011;18136;42.236;-73.040;2023-04-29T07:51:50;4.05;;;1.95;;
31526;SDS011;18136;42.236;-73.040;2023-04-29T07:54:17;5.65;;;2.47;;
31526;SDS011;18136;42.236;-73.040;2023-04-29T07:56:44;3.75;;;2.22;;
31526;SDS011;18136;42.236;-73.040;2023-04-29T07:59:10;2.28;;;2.05;;
31526;SDS011;18136;42.236;-73.040;2023-04-29T08:01:36;5.18;;;3.08;;
31526;SDS011;18136;42.236;-73.040;2023-04-29T08:04:04;2.65;;;2.15;;
31526;SDS011;18136;42.236;-73.040;2023-04-29T08:06:31;2.30;;;2.05;;
31526;SDS011;18136;42.236;-73.040;2023-04-29T08:08:57;3.13;;;2.60;;
31526;SDS011;18136;42.236;-73.040;2023-04-29T08:11:23;4.03;;;2.45;;
31526;SDS011;18136;42.236;-73.040;2023-04-29T08:13:51;3.05;;;2.28;;
31526;SDS011;18136;42.236;-73.040;2023-04-29T08:16:21;3.08;;;2.75;;
31526;SDS011;18136;42.236;-73.040;2023-04-29T08:18:51;3.50;;;2.88;;
31526;SDS011;18136;42.236;-73.040;2023-04-29T08:21:17;4.05;;;2.72;;
31526;SDS011;18136;42.236;-73.040;2023-04-29T08:23:44;5.55;;;2.92;;
31526;SDS011;18136;42.236;-73.040;2023-04-29T08:26:10;3.38;;;3.08;;
31526;SDS011;18136;42.236;-73.040;2023-04-29T08:28:39;5.20;;;3.33;;
31526;SDS011;18136;42.236;-73.040;2023-04-29T08:31:05;4.68;;;2.67;;
31526;SDS011;18136;42.236;-73.040;2023-04-29T08:33:37;5.85;;;3.38;;
31526;SDS011;18136;42.236;-73.040;2023-04-29T08:36:03;7.50;;;3.80;;
31526;SDS011;18136;42.236;-73.040;2023-04-29T08:38:30;4.38;;;3.28;;
31526;SDS011;18136;42.236;-73.040;2023-04-29T08:40:56;5.65;;;2.95;;
31526;SDS011;18136;42.236;-73.040;2023-04-29T08:43:22;5.93;;;3.10;;
31526;SDS011;18136;42.236;-73.040;2023-04-29T08:45:49;4.97;;;3.80;;
31526;SDS011;18136;42.236;-73.040;2023-04-29T08:48:16;5.80;;;3.50;;
31526;SDS011;18136;42.236;-73.040;2023-04-29T08:50:43;5.05;;;3.67;;
31526;SDS011;18136;42.236;-73.040;2023-04-29T08:53:10;4.70;;;3.72;;
31526;SDS011;18136;42.236;-73.040;2023-04-29T08:55:41;7.07;;;3.90;;
31526;SDS011;18136;42.236;-73.040;2023-04-29T08:58:11;6.18;;;4.20;;
31526;SDS011;18136;42.236;-73.040;2023-04-29T09:00:39;5.97;;;3.63;;
31526;SDS011;18136;42.236;-73.040;2023-04-29T09:03:26;4.82;;;3.72;;
31526;SDS011;18136;42.236;-73.040;2023-04-29T09:05:54;4.25;;;3.63;;
31526;SDS011;18136;42.236;-73.040;2023-04-29T09:08:23;5.75;;;3.70;;
31526;SDS011;18136;42.236;-73.040;2023-04-29T09:10:50;8.75;;;3.97;;
31526;SDS011;18136;42.236;-73.040;2023-04-29T09:13:24;6.35;;;4.10;;
31526;SDS011;18136;42.236;-73.040;2023-04-29T09:15:51;4.18;;;3.65;;
31526;SDS011;18136;42.236;-73.040;2023-04-29T09:23:43;4.53;;;3.50;;
31526;SDS011;18136;42.236;-73.040;2023-04-29T09:26:10;7.35;;;3.50;;
31526;SDS011;18136;42.236;-73.040;2023-04-29T09:28:36;4.80;;;3.80;;
31526;SDS011;18136;42.236;-73.040;2023-04-29T09:31:05;5.90;;;4.00;;
31526;SDS011;18136;42.236;-73.040;2023-04-29T09:33:53;6.07;;;3.63;;
31526;SDS011;18136;42.236;-73.040;2023-04-29T09:36:35;4.72;;;3.63;;
31526;SDS011;18136;42.236;-73.040;2023-04-29T09:42:04;4.55;;;3.78;;
31526;SDS011;18136;42.236;-73.040;2023-04-29T09:44:34;5.07;;;3.47;;
31526;SDS011;18136;42.236;-73.040;2023-04-29T09:47:01;5.25;;;3.20;;
31526;SDS011;18136;42.236;-73.040;2023-04-29T09:49:33;4.75;;;3.35;;
31526;SDS011;18136;42.236;-73.040;2023-04-29T09:52:03;5.15;;;4.05;;
31526;SDS011;18136;42.236;-73.040;2023-04-29T09:54:44;4.22;;;3.83;;
31526;SDS011;18136;42.236;-73.040;2023-04-29T09:57:11;5.63;;;3.72;;
31526;SDS011;18136;42.236;-73.040;2023-04-29T09:59:42;4.82;;;3.15;;
31526;SDS011;18136;42.236;-73.040;2023-04-29T10:02:12;4.35;;;3.60;;
31526;SDS011;18136;42.236;-73.040;2023-04-29T10:04:40;4.43;;;3.90;;
31526;SDS011;18136;42.236;-73.040;2023-04-29T10:07:08;5.18;;;3.90;;
31526;SDS011;18136;42.236;-73.040;2023-04-29T10:09:43;3.58;;;3.22;;
31526;SDS011;18136;42.236;-73.040;2023-04-29T10:12:11;4.90;;;3.83;;
31526;SDS011;18136;42.236;-73.040;2023-04-29T10:14:46;5.63;;;3.45;;
31526;SDS011;18136;42.236;-73.040;2023-04-29T10:18:02;4.40;;;2.90;;
31526;SDS011;18136;42.236;-73.040;2023-04-29T10:20:11;5.22;;;3.63;;
31526;SDS011;18136;42.236;-73.040;2023-04-29T10:25:14;7.05;;;4.43;;
31526;SDS011;18136;42.236;-73.040;2023-04-29T10:27:41;6.18;;;3.65;;
31526;SDS011;18136;42.236;-73.040;2023-04-29T10:30:13;5.68;;;3.67;;
31526;SDS011;18136;42.236;-73.040;2023-04-29T10:32:40;3.65;;;3.33;;
31526;SDS011;18136;42.236;-73.040;2023-04-29T10:35:08;5.20;;;3.70;;
31526;SDS011;18136;42.236;-73.040;2023-04-29T10:37:45;6.78;;;4.05;;
31526;SDS011;18136;42.236;-73.040;2023-04-29T10:40:23;3.63;;;3.30;;
31526;SDS011;18136;42.236;-73.040;2023-04-29T10:42:54;5.18;;;4.00;;
31526;SDS011;18136;42.236;-73.040;2023-04-29T10:45:28;4.80;;;3.85;;
31526;SDS011;18136;42.236;-73.040;2023-04-29T10:50:38;4.15;;;3.50;;
31526;SDS011;18136;42.236;-73.040;2023-04-29T10:53:06;4.57;;;3.90;;
31526;SDS011;18136;42.236;-73.040;2023-04-29T10:55:36;6.57;;;3.92;;
31526;SDS011;18136;42.236;-73.040;2023-04-29T10:58:03;5.00;;;3.88;;
31526;SDS011;18136;42.236;-73.040;2023-04-29T11:00:31;6.05;;;4.10;;
31526;SDS011;18136;42.236;-73.040;2023-04-29T11:02:59;4.97;;;3.45;;
31526;SDS011;18136;42.236;-73.040;2023-04-29T11:05:30;4.32;;;3.80;;
31526;SDS011;18136;42.236;-73.040;2023-04-29T11:08:19;8.07;;;4.07;;
31526;SDS011;18136;42.236;-73.040;2023-04-29T11:10:55;7.15;;;4.55;;
31526;SDS011;18136;42.236;-73.040;2023-04-29T11:13:28;8.30;;;4.13;;
31526;SDS011;18136;42.236;-73.040;2023-04-29T11:16:06;7.47;;;4.65;;
31526;SDS011;18136;42.236;-73.040;2023-04-29T11:19:02;5.63;;;4.10;;
31526;SDS011;18136;42.236;-73.040;2023-04-29T11:21:38;5.50;;;3.60;;
31526;SDS011;18136;42.236;-73.040;2023-04-29T11:24:05;5.45;;;4.43;;
31526;SDS011;18136;42.236;-73.040;2023-04-29T11:26:33;9.30;;;4.38;;
31526;SDS011;18136;42.236;-73.040;2023-04-29T11:29:00;4.35;;;3.95;;
31526;SDS011;18136;42.236;-73.040;2023-04-29T11:31:30;7.47;;;3.90;;
31526;SDS011;18136;42.236;-73.040;2023-04-29T11:33:56;5.03;;;3.80;;
31526;SDS011;18136;42.236;-73.040;2023-04-29T11:36:23;7.32;;;4.70;;
31526;SDS011;18136;42.236;-73.040;2023-04-29T11:38:49;5.05;;;4.00;;
31526;SDS011;18136;42.236;-73.040;2023-04-29T11:41:16;5.40;;;4.28;;
31526;SDS011;18136;42.236;-73.040;2023-04-29T11:43:44;4.30;;;3.90;;
31526;SDS011;18136;42.236;-73.040;2023-04-29T11:46:11;5.85;;;3.92;;
31526;SDS011;18136;42.236;-73.040;2023-04-29T11:48:48;4.47;;;3.88;;
31526;SDS011;18136;42.236;-73.040;2023-04-29T11:51:15;5.70;;;3.67;;
31526;SDS011;18136;42.236;-73.040;2023-04-29T11:53:43;7.00;;;3.95;;
31526;SDS011;18136;42.236;-73.040;2023-04-29T11:56:09;4.93;;;4.43;;
31526;SDS011;18136;42.236;-73.040;2023-04-29T11:58:36;5.57;;;4.20;;
31526;SDS011;18136;42.236;-73.040;2023-04-29T12:01:03;7.18;;;3.83;;
31526;SDS011;18136;42.236;-73.040;2023-04-29T12:03:30;4.53;;;3.17;;
31526;SDS011;18136;42.236;-73.040;2023-04-29T12:05:57;3.80;;;3.38;;
31526;SDS011;18136;42.236;-73.040;2023-04-29T12:08:26;4.45;;;3.20;;
31526;SDS011;18136;42.236;-73.040;2023-04-29T12:10:54;4.25;;;3.47;;
31526;SDS011;18136;42.236;-73.040;2023-04-29T12:13:28;3.97;;;3.58;;
31526;SDS011;18136;42.236;-73.040;2023-04-29T12:15:55;4.20;;;3.22;;
31526;SDS011;18136;42.236;-73.040;2023-04-29T12:18:23;4.30;;;3.03;;
31526;SDS011;18136;42.236;-73.040;2023-04-29T12:20:51;3.22;;;2.92;;
31526;SDS011;18136;42.236;-73.040;2023-04-29T12:23:20;3.65;;;3.10;;
31526;SDS011;18136;42.236;-73.040;2023-04-29T12:25:52;5.15;;;3.55;;
31526;SDS011;18136;42.236;-73.040;2023-04-29T12:28:23;4.82;;;2.90;;
31526;SDS011;18136;42.236;-73.040;2023-04-29T12:30:51;3.30;;;3.00;;
31526;SDS011;18136;42.236;-73.040;2023-04-29T12:33:27;3.40;;;2.80;;
31526;SDS011;18136;42.236;-73.040;2023-04-29T12:35:54;3.30;;;2.40;;
31526;SDS011;18136;42.236;-73.040;2023-04-29T12:38:25;4.95;;;2.70;;
31526;SDS011;18136;42.236;-73.040;2023-04-29T12:40:54;4.13;;;2.80;;
31526;SDS011;18136;42.236;-73.040;2023-04-29T12:43:27;3.10;;;2.80;;
31526;SDS011;18136;42.236;-73.040;2023-04-29T12:45:59;3.38;;;3.08;;
31526;SDS011;18136;42.236;-73.040;2023-04-29T12:48:32;3.10;;;2.80;;
31526;SDS011;18136;42.236;-73.040;2023-04-29T12:51:03;2.80;;;2.60;;
31526;SDS011;18136;42.236;-73.040;2023-04-29T12:53:29;2.70;;;2.50;;
31526;SDS011;18136;42.236;-73.040;2023-04-29T12:55:56;2.60;;;2.40;;
31526;SDS011;18136;42.236;-73.040;2023-04-29T12:58:22;3.13;;;2.65;;
31526;SDS011;18136;42.236;-73.040;2023-04-29T13:00:49;3.42;;;2.90;;
31526;SDS011;18136;42.236;-73.040;2023-04-29T13:03:15;3.58;;;2.70;;
31526;SDS011;18136;42.236;-73.040;2023-04-29T13:05:41;3.63;;;2.85;;
31526;SDS011;18136;42.236;-73.040;2023-04-29T13:08:07;3.72;;;2.80;;
31526;SDS011;18136;42.236;-73.040;2023-04-29T13:10:34;3.50;;;3.20;;
31526;SDS011;18136;42.236;-73.040;2023-04-29T13:13:00;4.47;;;2.72;;
31526;SDS011;18136;42.236;-73.040;2023-04-29T13:15:26;4.57;;;2.70;;
31526;SDS011;18136;42.236;-73.040;2023-04-29T13:17:52;2.65;;;2.45;;
31526;SDS011;18136;42.236;-73.040;2023-04-29T13:20:19;5.68;;;2.92;;
31526;SDS011;18136;42.236;-73.040;2023-04-29T13:22:46;4.43;;;3.47;;
31526;SDS011;18136;42.236;-73.040;2023-04-29T13:25:12;6.05;;;3.53;;
31526;SDS011;18136;42.236;-73.040;2023-04-29T13:27:40;7.38;;;3.17;;
31526;SDS011;18136;42.236;-73.040;2023-04-29T13:30:06;2.85;;;2.55;;
31526;SDS011;18136;42.236;-73.040;2023-04-29T13:32:33;7.45;;;3.10;;
31526;SDS011;18136;42.236;-73.040;2023-04-29T13:34:59;4.65;;;2.58;;
31526;SDS011;18136;42.236;-73.040;2023-04-29T13:37:26;4.53;;;2.35;;
31526;SDS011;18136;42.236;-73.040;2023-04-29T13:39:52;2.90;;;2.28;;
31526;SDS011;18136;42.236;-73.040;2023-04-29T13:42:19;2.85;;;2.50;;
31526;SDS011;18136;42.236;-73.040;2023-04-29T13:44:45;6.20;;;3.72;;
31526;SDS011;18136;42.236;-73.040;2023-04-29T13:47:13;3.85;;;2.20;;
31526;SDS011;18136;42.236;-73.040;2023-04-29T13:49:39;2.53;;;2.33;;
31526;SDS011;18136;42.236;-73.040;2023-04-29T13:52:11;2.60;;;2.38;;
31526;SDS011;18136;42.236;-73.040;2023-04-29T13:54:38;3.00;;;2.70;;
31526;SDS011;18136;42.236;-73.040;2023-04-29T13:57:04;4.68;;;2.55;;
31526;SDS011;18136;42.236;-73.040;2023-04-29T13:59:31;3.00;;;2.58;;
31526;SDS011;18136;42.236;-73.040;2023-04-29T14:01:57;7.55;;;2.83;;
31526;SDS011;18136;42.236;-73.040;2023-04-29T14:04:24;5.35;;;2.60;;
31526;SDS011;18136;42.236;-73.040;2023-04-29T14:06:51;3.42;;;2.50;;
31526;SDS011;18136;42.236;-73.040;2023-04-29T14:09:18;4.43;;;2.53;;
31526;SDS011;18136;42.236;-73.040;2023-04-29T14:11:45;3.55;;;2.67;;
31526;SDS011;18136;42.236;-73.040;2023-04-29T14:14:12;3.50;;;2.60;;
31526;SDS011;18136;42.236;-73.040;2023-04-29T14:16:38;3.55;;;3.25;;
31526;SDS011;18136;42.236;-73.040;2023-04-29T14:19:04;5.32;;;3.13;;
31526;SDS011;18136;42.236;-73.040;2023-04-29T14:21:31;4.70;;;2.65;;
31526;SDS011;18136;42.236;-73.040;2023-04-29T14:23:58;3.08;;;2.72;;
31526;SDS011;18136;42.236;-73.040;2023-04-29T14:26:26;3.88;;;2.20;;
31526;SDS011;18136;42.236;-73.040;2023-04-29T14:28:53;3.17;;;2.83;;
31526;SDS011;18136;42.236;-73.040;2023-04-29T14:31:27;2.80;;;2.60;;
31526;SDS011;18136;42.236;-73.040;2023-04-29T14:33:57;3.22;;;2.95;;
31526;SDS011;18136;42.236;-73.040;2023-04-29T14:36:24;2.60;;;2.40;;
31526;SDS011;18136;42.236;-73.040;2023-04-29T14:38:53;2.90;;;2.70;;
31526;SDS011;18136;42.236;-73.040;2023-04-29T14:41:19;4.95;;;3.35;;
31526;SDS011;18136;42.236;-73.040;2023-04-29T14:43:46;3.95;;;2.90;;
31526;SDS011;18136;42.236;-73.040;2023-04-29T14:46:12;3.65;;;2.67;;
31526;SDS011;18136;42.236;-73.040;2023-04-29T14:48:38;2.70;;;2.50;;
31526;SDS011;18136;42.236;-73.040;2023-04-29T14:51:05;2.20;;;2.00;;
31526;SDS011;18136;42.236;-73.040;2023-04-29T14:53:31;4.53;;;2.78;;
31526;SDS011;18136;42.236;-73.040;2023-04-29T14:55:58;2.92;;;2.60;;